sensor_id;sensor_type;location;lat;lon;timestamp;P1;durP1;ratioP1;P2;durP2;ratioP2
19619;SDS011;9957;52.282;21.110;2023-03-01T00:01:23;91.82;;;30.67;;
19619;SDS011;9957;52.282;21.110;2023-03-01T00:03:50;90.00;;;29.00;;
19619;SDS011;9957;52.282;21.110;2023-03-01T00:06:16;94.20;;;28.90;;
19619;SDS011;9957;52.282;21.110;2023-03-01T00:08:43;89.68;;;27.90;;
19619;SDS011;9957;52.282;21.110;2023-03-01T00:13:38;84.63;;;29.00;;
19619;SDS011;9957;52.282;21.110;2023-03-01T00:16:05;83.80;;;28.30;;
19619;SDS011;9957;52.282;21.110;2023-03-01T00:18:31;95.32;;;28.55;;
19619;SDS011;9957;52.282;21.110;2023-03-01T00:20:57;88.27;;;27.03;;
19619;SDS011;9957;52.282;21.110;2023-03-01T00:23:23;76.72;;;26.60;;
19619;SDS011;9957;52.282;21.110;2023-03-01T00:25:50;95.57;;;28.98;;
19619;SDS011;9957;52.282;21.110;2023-03-01T00:28:16;91.32;;;27.92;;
19619;SDS011;9957;52.282;21.110;2023-03-01T00:30:42;93.15;;;28.70;;
19619;SDS011;9957;52.282;21.110;2023-03-01T00:33:08;95.50;;;28.17;;
19619;SDS011;9957;52.282;21.110;2023-03-01T00:35:35;85.65;;;28.30;;
19619;SDS011;9957;52.282;21.110;2023-03-01T00:38:01;84.28;;;28.00;;
19619;SDS011;9957;52.282;21.110;2023-03-01T00:40:27;94.70;;;29.20;;
19619;SDS011;9957;52.282;21.110;2023-03-01T00:42:54;93.50;;;30.17;;
19619;SDS011;9957;52.282;21.110;2023-03-01T00:45:20;91.78;;;28.33;;
19619;SDS011;9957;52.282;21.110;2023-03-01T00:47:47;83.57;;;28.98;;
19619;SDS011;9957;52.282;21.110;2023-03-01T00:50:14;82.95;;;28.77;;
19619;SDS011;9957;52.282;21.110;2023-03-01T00:52:40;78.22;;;26.42;;
19619;SDS011;9957;52.282;21.110;2023-03-01T00:55:06;81.67;;;27.50;;
19619;SDS011;9957;52.282;21.110;2023-03-01T00:57:32;63.97;;;21.53;;
19619;SDS011;9957;52.282;21.110;2023-03-01T00:59:58;60.93;;;20.33;;
19619;SDS011;9957;52.282;21.110;2023-03-01T01:02:24;61.20;;;19.30;;
19619;SDS011;9957;52.282;21.110;2023-03-01T01:04:50;59.73;;;18.70;;
19619;SDS011;9957;52.282;21.110;2023-03-01T01:07:17;72.68;;;23.77;;
19619;SDS011;9957;52.282;21.110;2023-03-01T01:09:45;75.90;;;24.65;;
19619;SDS011;9957;52.282;21.110;2023-03-01T01:12:11;79.03;;;25.35;;
19619;SDS011;9957;52.282;21.110;2023-03-01T01:14:37;72.10;;;25.42;;
19619;SDS011;9957;52.282;21.110;2023-03-01T01:17:04;79.13;;;27.38;;
19619;SDS011;9957;52.282;21.110;2023-03-01T01:19:30;76.23;;;26.17;;
19619;SDS011;9957;52.282;21.110;2023-03-01T01:21:56;75.05;;;25.50;;
19619;SDS011;9957;52.282;21.110;2023-03-01T01:24:22;75.57;;;26.08;;
19619;SDS011;9957;52.282;21.110;2023-03-01T01:26:48;70.70;;;26.03;;
19619;SDS011;9957;52.282;21.110;2023-03-01T01:29:14;72.90;;;25.80;;
19619;SDS011;9957;52.282;21.110;2023-03-01T01:31:40;82.53;;;26.17;;
19619;SDS011;9957;52.282;21.110;2023-03-01T01:34:08;82.47;;;25.98;;
19619;SDS011;9957;52.282;21.110;2023-03-01T01:36:34;71.82;;;25.48;;
19619;SDS011;9957;52.282;21.110;2023-03-01T01:39:00;73.65;;;25.45;;
19619;SDS011;9957;52.282;21.110;2023-03-01T01:41:27;78.32;;;26.48;;
19619;SDS011;9957;52.282;21.110;2023-03-01T01:47:01;85.40;;;26.23;;
19619;SDS011;9957;52.282;21.110;2023-03-01T01:49:29;74.38;;;25.92;;
19619;SDS011;9957;52.282;21.110;2023-03-01T01:54:44;81.20;;;26.35;;
19619;SDS011;9957;52.282;21.110;2023-03-01T01:57:12;81.75;;;26.95;;
19619;SDS011;9957;52.282;21.110;2023-03-01T01:59:39;76.10;;;26.02;;
19619;SDS011;9957;52.282;21.110;2023-03-01T02:02:07;75.10;;;26.07;;
19619;SDS011;9957;52.282;21.110;2023-03-01T02:04:33;80.90;;;27.10;;
19619;SDS011;9957;52.282;21.110;2023-03-01T02:07:03;82.37;;;28.23;;
19619;SDS011;9957;52.282;21.110;2023-03-01T02:09:32;73.53;;;25.67;;
19619;SDS011;9957;52.282;21.110;2023-03-01T02:11:59;87.53;;;27.40;;
19619;SDS011;9957;52.282;21.110;2023-03-01T02:14:25;84.38;;;26.55;;
19619;SDS011;9957;52.282;21.110;2023-03-01T02:16:51;73.80;;;26.65;;
19619;SDS011;9957;52.282;21.110;2023-03-01T02:20:01;82.38;;;26.25;;
19619;SDS011;9957;52.282;21.110;2023-03-01T02:27:33;91.38;;;27.67;;
19619;SDS011;9957;52.282;21.110;2023-03-01T02:30:01;82.25;;;27.63;;
19619;SDS011;9957;52.282;21.110;2023-03-01T02:32:28;83.25;;;26.58;;
19619;SDS011;9957;52.282;21.110;2023-03-01T02:34:54;72.20;;;25.38;;
19619;SDS011;9957;52.282;21.110;2023-03-01T02:37:21;68.43;;;23.50;;
19619;SDS011;9957;52.282;21.110;2023-03-01T02:39:51;65.35;;;22.95;;
19619;SDS011;9957;52.282;21.110;2023-03-01T02:42:21;73.97;;;24.75;;
19619;SDS011;9957;52.282;21.110;2023-03-01T02:44:48;68.32;;;24.20;;
19619;SDS011;9957;52.282;21.110;2023-03-01T02:47:15;64.30;;;23.38;;
19619;SDS011;9957;52.282;21.110;2023-03-01T02:49:41;78.50;;;23.75;;
19619;SDS011;9957;52.282;21.110;2023-03-01T02:52:19;68.63;;;23.60;;
19619;SDS011;9957;52.282;21.110;2023-03-01T02:57:13;57.23;;;17.60;;
19619;SDS011;9957;52.282;21.110;2023-03-01T02:59:40;57.73;;;16.10;;
19619;SDS011;9957;52.282;21.110;2023-03-01T03:02:18;52.67;;;16.57;;
19619;SDS011;9957;52.282;21.110;2023-03-01T03:04:46;49.97;;;15.20;;
19619;SDS011;9957;52.282;21.110;2023-03-01T03:07:12;46.63;;;16.00;;
19619;SDS011;9957;52.282;21.110;2023-03-01T03:09:38;51.17;;;15.17;;
19619;SDS011;9957;52.282;21.110;2023-03-01T03:12:04;49.57;;;16.40;;
19619;SDS011;9957;52.282;21.110;2023-03-01T03:14:30;52.80;;;15.97;;
19619;SDS011;9957;52.282;21.110;2023-03-01T03:16:59;52.17;;;16.37;;
19619;SDS011;9957;52.282;21.110;2023-03-01T03:19:26;49.27;;;16.00;;
19619;SDS011;9957;52.282;21.110;2023-03-01T03:21:52;50.53;;;15.47;;
19619;SDS011;9957;52.282;21.110;2023-03-01T03:24:18;56.50;;;15.83;;
19619;SDS011;9957;52.282;21.110;2023-03-01T03:26:44;54.10;;;16.43;;
19619;SDS011;9957;52.282;21.110;2023-03-01T03:29:10;57.87;;;17.00;;
19619;SDS011;9957;52.282;21.110;2023-03-01T03:31:36;61.37;;;17.37;;
19619;SDS011;9957;52.282;21.110;2023-03-01T03:34:02;63.80;;;17.27;;
19619;SDS011;9957;52.282;21.110;2023-03-01T03:36:28;51.33;;;16.30;;
19619;SDS011;9957;52.282;21.110;2023-03-01T03:38:54;52.40;;;17.50;;
19619;SDS011;9957;52.282;21.110;2023-03-01T03:41:20;53.30;;;16.47;;
19619;SDS011;9957;52.282;21.110;2023-03-01T03:43:46;75.97;;;17.20;;
19619;SDS011;9957;52.282;21.110;2023-03-01T03:46:13;59.23;;;17.17;;
19619;SDS011;9957;52.282;21.110;2023-03-01T03:48:40;56.07;;;16.43;;
19619;SDS011;9957;52.282;21.110;2023-03-01T03:51:09;55.97;;;17.10;;
19619;SDS011;9957;52.282;21.110;2023-03-01T03:53:35;67.07;;;18.87;;
19619;SDS011;9957;52.282;21.110;2023-03-01T03:56:01;52.83;;;16.57;;
19619;SDS011;9957;52.282;21.110;2023-03-01T03:58:28;60.03;;;16.50;;
19619;SDS011;9957;52.282;21.110;2023-03-01T04:00:55;53.90;;;16.63;;
19619;SDS011;9957;52.282;21.110;2023-03-01T04:03:22;62.30;;;17.00;;
19619;SDS011;9957;52.282;21.110;2023-03-01T04:05:48;55.07;;;16.40;;
19619;SDS011;9957;52.282;21.110;2023-03-01T04:08:18;61.73;;;16.90;;
19619;SDS011;9957;52.282;21.110;2023-03-01T04:10:46;54.50;;;16.80;;
19619;SDS011;9957;52.282;21.110;2023-03-01T04:13:13;51.57;;;16.77;;
19619;SDS011;9957;52.282;21.110;2023-03-01T04:15:40;60.83;;;16.87;;
19619;SDS011;9957;52.282;21.110;2023-03-01T04:18:08;55.37;;;16.80;;
19619;SDS011;9957;52.282;21.110;2023-03-01T04:20:34;54.03;;;17.07;;
19619;SDS011;9957;52.282;21.110;2023-03-01T04:23:06;49.27;;;16.33;;
19619;SDS011;9957;52.282;21.110;2023-03-01T04:28:25;60.37;;;16.13;;
19619;SDS011;9957;52.282;21.110;2023-03-01T04:30:51;53.47;;;16.23;;
19619;SDS011;9957;52.282;21.110;2023-03-01T04:33:18;47.93;;;15.70;;
19619;SDS011;9957;52.282;21.110;2023-03-01T04:35:44;48.13;;;16.20;;
19619;SDS011;9957;52.282;21.110;2023-03-01T04:38:10;55.50;;;15.37;;
19619;SDS011;9957;52.282;21.110;2023-03-01T04:40:37;56.37;;;17.10;;
19619;SDS011;9957;52.282;21.110;2023-03-01T04:43:03;57.37;;;17.33;;
19619;SDS011;9957;52.282;21.110;2023-03-01T04:45:31;63.23;;;18.13;;
19619;SDS011;9957;52.282;21.110;2023-03-01T04:47:57;63.60;;;19.10;;
19619;SDS011;9957;52.282;21.110;2023-03-01T04:50:23;64.07;;;19.30;;
19619;SDS011;9957;52.282;21.110;2023-03-01T04:52:51;74.30;;;18.13;;
19619;SDS011;9957;52.282;21.110;2023-03-01T04:55:17;60.33;;;18.37;;
19619;SDS011;9957;52.282;21.110;2023-03-01T04:57:43;62.67;;;18.27;;
19619;SDS011;9957;52.282;21.110;2023-03-01T05:00:11;52.07;;;16.63;;
19619;SDS011;9957;52.282;21.110;2023-03-01T05:02:50;66.53;;;18.67;;
19619;SDS011;9957;52.282;21.110;2023-03-01T05:05:39;60.70;;;18.80;;
19619;SDS011;9957;52.282;21.110;2023-03-01T05:08:06;71.77;;;19.17;;
19619;SDS011;9957;52.282;21.110;2023-03-01T05:10:32;57.13;;;17.17;;
19619;SDS011;9957;52.282;21.110;2023-03-01T05:13:00;62.10;;;18.43;;
19619;SDS011;9957;52.282;21.110;2023-03-01T05:15:26;83.67;;;18.70;;
19619;SDS011;9957;52.282;21.110;2023-03-01T05:17:53;66.93;;;19.27;;
19619;SDS011;9957;52.282;21.110;2023-03-01T05:20:19;62.77;;;19.20;;
19619;SDS011;9957;52.282;21.110;2023-03-01T05:22:49;63.03;;;19.93;;
19619;SDS011;9957;52.282;21.110;2023-03-01T05:25:18;94.67;;;21.03;;
19619;SDS011;9957;52.282;21.110;2023-03-01T05:27:46;86.37;;;20.07;;
19619;SDS011;9957;52.282;21.110;2023-03-01T05:30:12;70.73;;;20.20;;
19619;SDS011;9957;52.282;21.110;2023-03-01T05:32:40;68.93;;;21.70;;
19619;SDS011;9957;52.282;21.110;2023-03-01T05:35:06;71.47;;;20.07;;
19619;SDS011;9957;52.282;21.110;2023-03-01T05:37:32;77.10;;;21.03;;
19619;SDS011;9957;52.282;21.110;2023-03-01T05:39:58;69.03;;;20.70;;
19619;SDS011;9957;52.282;21.110;2023-03-01T05:42:24;70.23;;;20.10;;
19619;SDS011;9957;52.282;21.110;2023-03-01T05:44:50;76.53;;;21.07;;
19619;SDS011;9957;52.282;21.110;2023-03-01T05:47:16;82.93;;;21.20;;
19619;SDS011;9957;52.282;21.110;2023-03-01T05:49:42;85.20;;;23.83;;
19619;SDS011;9957;52.282;21.110;2023-03-01T05:52:08;88.60;;;26.07;;
19619;SDS011;9957;52.282;21.110;2023-03-01T05:54:34;85.03;;;22.27;;
19619;SDS011;9957;52.282;21.110;2023-03-01T05:57:00;72.33;;;20.77;;
19619;SDS011;9957;52.282;21.110;2023-03-01T05:59:26;83.93;;;23.87;;
19619;SDS011;9957;52.282;21.110;2023-03-01T06:01:52;66.03;;;22.47;;
19619;SDS011;9957;52.282;21.110;2023-03-01T06:04:18;60.40;;;19.63;;
19619;SDS011;9957;52.282;21.110;2023-03-01T06:06:44;79.07;;;20.13;;
19619;SDS011;9957;52.282;21.110;2023-03-01T06:09:10;74.97;;;20.67;;
19619;SDS011;9957;52.282;21.110;2023-03-01T06:11:36;92.70;;;26.63;;
19619;SDS011;9957;52.282;21.110;2023-03-01T06:14:03;102.57;;;24.67;;
19619;SDS011;9957;52.282;21.110;2023-03-01T06:16:29;138.33;;;41.83;;
19619;SDS011;9957;52.282;21.110;2023-03-01T06:18:55;123.97;;;42.80;;
19619;SDS011;9957;52.282;21.110;2023-03-01T06:21:21;144.40;;;39.23;;
19619;SDS011;9957;52.282;21.110;2023-03-01T06:23:47;147.80;;;48.67;;
19619;SDS011;9957;52.282;21.110;2023-03-01T06:26:13;183.60;;;56.35;;
19619;SDS011;9957;52.282;21.110;2023-03-01T06:28:40;144.75;;;46.55;;
19619;SDS011;9957;52.282;21.110;2023-03-01T06:31:06;175.38;;;56.10;;
19619;SDS011;9957;52.282;21.110;2023-03-01T06:33:33;184.02;;;54.90;;
19619;SDS011;9957;52.282;21.110;2023-03-01T06:36:01;129.82;;;42.63;;
19619;SDS011;9957;52.282;21.110;2023-03-01T06:38:27;124.78;;;38.50;;
19619;SDS011;9957;52.282;21.110;2023-03-01T06:40:53;101.10;;;34.00;;
19619;SDS011;9957;52.282;21.110;2023-03-01T06:43:20;118.13;;;36.03;;
19619;SDS011;9957;52.282;21.110;2023-03-01T06:45:46;116.35;;;33.95;;
19619;SDS011;9957;52.282;21.110;2023-03-01T06:48:12;103.15;;;33.35;;
19619;SDS011;9957;52.282;21.110;2023-03-01T06:50:38;109.25;;;30.17;;
19619;SDS011;9957;52.282;21.110;2023-03-01T06:53:04;88.78;;;32.55;;
19619;SDS011;9957;52.282;21.110;2023-03-01T06:55:30;99.20;;;34.25;;
19619;SDS011;9957;52.282;21.110;2023-03-01T06:57:57;84.78;;;29.33;;
19619;SDS011;9957;52.282;21.110;2023-03-01T07:00:24;100.05;;;33.90;;
19619;SDS011;9957;52.282;21.110;2023-03-01T07:02:51;91.95;;;28.50;;
19619;SDS011;9957;52.282;21.110;2023-03-01T07:05:17;78.85;;;28.17;;
19619;SDS011;9957;52.282;21.110;2023-03-01T07:07:43;96.73;;;29.83;;
19619;SDS011;9957;52.282;21.110;2023-03-01T07:10:10;85.47;;;28.60;;
19619;SDS011;9957;52.282;21.110;2023-03-01T07:12:36;82.53;;;26.30;;
19619;SDS011;9957;52.282;21.110;2023-03-01T07:15:02;74.00;;;26.60;;
19619;SDS011;9957;52.282;21.110;2023-03-01T07:17:28;90.60;;;32.53;;
19619;SDS011;9957;52.282;21.110;2023-03-01T07:19:54;72.57;;;26.70;;
19619;SDS011;9957;52.282;21.110;2023-03-01T07:22:20;68.57;;;25.40;;
19619;SDS011;9957;52.282;21.110;2023-03-01T07:24:46;91.10;;;31.15;;
19619;SDS011;9957;52.282;21.110;2023-03-01T07:27:12;109.40;;;36.47;;
19619;SDS011;9957;52.282;21.110;2023-03-01T07:29:38;70.28;;;25.73;;
19619;SDS011;9957;52.282;21.110;2023-03-01T07:32:05;90.70;;;31.73;;
19619;SDS011;9957;52.282;21.110;2023-03-01T07:34:31;115.50;;;34.35;;
19619;SDS011;9957;52.282;21.110;2023-03-01T07:36:57;81.32;;;30.30;;
19619;SDS011;9957;52.282;21.110;2023-03-01T07:39:23;109.70;;;37.05;;
19619;SDS011;9957;52.282;21.110;2023-03-01T07:41:49;87.70;;;30.27;;
19619;SDS011;9957;52.282;21.110;2023-03-01T07:44:16;80.28;;;30.63;;
19619;SDS011;9957;52.282;21.110;2023-03-01T07:46:42;67.55;;;22.52;;
19619;SDS011;9957;52.282;21.110;2023-03-01T07:49:08;77.75;;;28.27;;
19619;SDS011;9957;52.282;21.110;2023-03-01T07:51:34;61.08;;;24.00;;
19619;SDS011;9957;52.282;21.110;2023-03-01T07:54:00;64.22;;;27.30;;
19619;SDS011;9957;52.282;21.110;2023-03-01T07:56:26;58.05;;;23.98;;
19619;SDS011;9957;52.282;21.110;2023-03-01T07:58:52;60.87;;;24.87;;
19619;SDS011;9957;52.282;21.110;2023-03-01T08:01:19;66.20;;;24.93;;
19619;SDS011;9957;52.282;21.110;2023-03-01T08:03:45;51.50;;;20.05;;
19619;SDS011;9957;52.282;21.110;2023-03-01T08:06:12;57.22;;;22.92;;
19619;SDS011;9957;52.282;21.110;2023-03-01T08:08:38;63.35;;;27.50;;
19619;SDS011;9957;52.282;21.110;2023-03-01T08:11:05;57.60;;;23.27;;
19619;SDS011;9957;52.282;21.110;2023-03-01T08:13:31;53.15;;;22.00;;
19619;SDS011;9957;52.282;21.110;2023-03-01T08:16:11;42.47;;;17.05;;
19619;SDS011;9957;52.282;21.110;2023-03-01T08:18:38;36.80;;;16.75;;
19619;SDS011;9957;52.282;21.110;2023-03-01T08:21:04;44.22;;;19.10;;
19619;SDS011;9957;52.282;21.110;2023-03-01T08:23:31;49.47;;;21.15;;
19619;SDS011;9957;52.282;21.110;2023-03-01T08:26:31;43.13;;;19.40;;
19619;SDS011;9957;52.282;21.110;2023-03-01T08:28:50;52.03;;;22.40;;
19619;SDS011;9957;52.282;21.110;2023-03-01T08:31:27;64.37;;;26.17;;
19619;SDS011;9957;52.282;21.110;2023-03-01T08:33:57;58.67;;;22.77;;
19619;SDS011;9957;52.282;21.110;2023-03-01T08:36:25;45.30;;;18.05;;
19619;SDS011;9957;52.282;21.110;2023-03-01T08:38:51;43.58;;;16.77;;
19619;SDS011;9957;52.282;21.110;2023-03-01T08:41:18;96.43;;;26.33;;
19619;SDS011;9957;52.282;21.110;2023-03-01T08:43:44;43.88;;;17.05;;
19619;SDS011;9957;52.282;21.110;2023-03-01T08:46:10;40.10;;;16.02;;
19619;SDS011;9957;52.282;21.110;2023-03-01T08:48:37;40.08;;;17.08;;
19619;SDS011;9957;52.282;21.110;2023-03-01T08:51:13;35.67;;;15.45;;
19619;SDS011;9957;52.282;21.110;2023-03-01T08:53:40;41.07;;;16.10;;
19619;SDS011;9957;52.282;21.110;2023-03-01T08:56:07;41.85;;;16.52;;
19619;SDS011;9957;52.282;21.110;2023-03-01T08:58:33;32.75;;;15.40;;
19619;SDS011;9957;52.282;21.110;2023-03-01T09:01:00;37.75;;;16.17;;
19619;SDS011;9957;52.282;21.110;2023-03-01T09:03:26;46.17;;;16.92;;
19619;SDS011;9957;52.282;21.110;2023-03-01T09:05:52;44.78;;;20.80;;
19619;SDS011;9957;52.282;21.110;2023-03-01T09:08:19;57.33;;;20.03;;
19619;SDS011;9957;52.282;21.110;2023-03-01T09:10:45;40.22;;;18.50;;
19619;SDS011;9957;52.282;21.110;2023-03-01T09:13:11;36.28;;;16.40;;
19619;SDS011;9957;52.282;21.110;2023-03-01T09:15:38;33.97;;;15.53;;
19619;SDS011;9957;52.282;21.110;2023-03-01T09:18:04;46.05;;;21.23;;
19619;SDS011;9957;52.282;21.110;2023-03-01T09:20:30;57.00;;;22.02;;
19619;SDS011;9957;52.282;21.110;2023-03-01T09:22:57;51.72;;;20.80;;
19619;SDS011;9957;52.282;21.110;2023-03-01T09:25:23;38.72;;;17.27;;
19619;SDS011;9957;52.282;21.110;2023-03-01T09:27:53;35.70;;;13.70;;
19619;SDS011;9957;52.282;21.110;2023-03-01T09:30:19;38.10;;;16.17;;
19619;SDS011;9957;52.282;21.110;2023-03-01T09:32:45;73.90;;;21.30;;
19619;SDS011;9957;52.282;21.110;2023-03-01T09:35:11;42.03;;;15.80;;
19619;SDS011;9957;52.282;21.110;2023-03-01T09:37:38;41.50;;;16.88;;
19619;SDS011;9957;52.282;21.110;2023-03-01T09:40:17;30.98;;;14.27;;
19619;SDS011;9957;52.282;21.110;2023-03-01T09:45:39;32.40;;;14.57;;
19619;SDS011;9957;52.282;21.110;2023-03-01T09:48:11;38.10;;;14.30;;
19619;SDS011;9957;52.282;21.110;2023-03-01T09:50:39;32.87;;;13.73;;
19619;SDS011;9957;52.282;21.110;2023-03-01T09:53:13;40.45;;;16.95;;
19619;SDS011;9957;52.282;21.110;2023-03-01T09:55:44;34.65;;;15.70;;
19619;SDS011;9957;52.282;21.110;2023-03-01T10:00:44;33.83;;;14.90;;
19619;SDS011;9957;52.282;21.110;2023-03-01T10:08:29;33.70;;;15.95;;
19619;SDS011;9957;52.282;21.110;2023-03-01T10:10:57;35.92;;;13.27;;
19619;SDS011;9957;52.282;21.110;2023-03-01T10:13:45;39.63;;;15.52;;
19619;SDS011;9957;52.282;21.110;2023-03-01T10:16:23;35.45;;;14.10;;
19619;SDS011;9957;52.282;21.110;2023-03-01T10:18:56;26.27;;;12.95;;
19619;SDS011;9957;52.282;21.110;2023-03-01T10:21:25;46.63;;;14.57;;
19619;SDS011;9957;52.282;21.110;2023-03-01T10:23:52;33.50;;;15.57;;
19619;SDS011;9957;52.282;21.110;2023-03-01T10:31:24;29.17;;;13.85;;
19619;SDS011;9957;52.282;21.110;2023-03-01T10:33:53;29.20;;;14.38;;
19619;SDS011;9957;52.282;21.110;2023-03-01T10:36:21;27.15;;;12.73;;
19619;SDS011;9957;52.282;21.110;2023-03-01T10:38:48;35.60;;;13.93;;
19619;SDS011;9957;52.282;21.110;2023-03-01T10:41:14;26.83;;;13.43;;
19619;SDS011;9957;52.282;21.110;2023-03-01T10:43:48;22.10;;;11.30;;
19619;SDS011;9957;52.282;21.110;2023-03-01T10:51:39;26.05;;;11.02;;
19619;SDS011;9957;52.282;21.110;2023-03-01T10:54:06;25.95;;;12.52;;
19619;SDS011;9957;52.282;21.110;2023-03-01T10:56:50;78.88;;;15.07;;
19619;SDS011;9957;52.282;21.110;2023-03-01T10:59:22;34.78;;;11.63;;
19619;SDS011;9957;52.282;21.110;2023-03-01T11:02:01;29.50;;;14.93;;
19619;SDS011;9957;52.282;21.110;2023-03-01T11:04:27;29.92;;;14.68;;
19619;SDS011;9957;52.282;21.110;2023-03-01T11:06:58;26.60;;;11.57;;
19619;SDS011;9957;52.282;21.110;2023-03-01T11:09:24;38.75;;;14.93;;
19619;SDS011;9957;52.282;21.110;2023-03-01T11:11:53;34.05;;;12.80;;
19619;SDS011;9957;52.282;21.110;2023-03-01T11:14:23;40.57;;;13.13;;
19619;SDS011;9957;52.282;21.110;2023-03-01T11:17:03;35.60;;;14.95;;
19619;SDS011;9957;52.282;21.110;2023-03-01T11:19:29;22.58;;;10.65;;
19619;SDS011;9957;52.282;21.110;2023-03-01T11:22:02;36.20;;;11.93;;
19619;SDS011;9957;52.282;21.110;2023-03-01T11:24:34;23.50;;;10.40;;
19619;SDS011;9957;52.282;21.110;2023-03-01T11:27:05;25.08;;;11.00;;
19619;SDS011;9957;52.282;21.110;2023-03-01T11:29:38;33.58;;;10.48;;
19619;SDS011;9957;52.282;21.110;2023-03-01T11:32:08;28.58;;;10.70;;
19619;SDS011;9957;52.282;21.110;2023-03-01T11:37:41;36.83;;;10.93;;
19619;SDS011;9957;52.282;21.110;2023-03-01T11:40:15;28.00;;;10.93;;
19619;SDS011;9957;52.282;21.110;2023-03-01T11:45:27;24.38;;;9.30;;
19619;SDS011;9957;52.282;21.110;2023-03-01T11:48:09;27.08;;;9.57;;
19619;SDS011;9957;52.282;21.110;2023-03-01T11:50:47;19.40;;;9.18;;
19619;SDS011;9957;52.282;21.110;2023-03-01T12:00:48;27.63;;;10.60;;
19619;SDS011;9957;52.282;21.110;2023-03-01T12:16:21;27.35;;;12.02;;
19619;SDS011;9957;52.282;21.110;2023-03-01T12:23:48;29.75;;;10.95;;
19619;SDS011;9957;52.282;21.110;2023-03-01T12:26:20;25.75;;;10.75;;
19619;SDS011;9957;52.282;21.110;2023-03-01T12:49:28;24.90;;;11.73;;
19619;SDS011;9957;52.282;21.110;2023-03-01T12:54:49;25.23;;;10.10;;
19619;SDS011;9957;52.282;21.110;2023-03-01T12:58:17;34.65;;;11.50;;
19619;SDS011;9957;52.282;21.110;2023-03-01T13:00:22;23.83;;;9.75;;
19619;SDS011;9957;52.282;21.110;2023-03-01T13:05:39;24.43;;;10.70;;
19619;SDS011;9957;52.282;21.110;2023-03-01T13:08:16;43.22;;;11.55;;
19619;SDS011;9957;52.282;21.110;2023-03-01T13:11:19;35.80;;;12.95;;
19619;SDS011;9957;52.282;21.110;2023-03-01T13:13:37;30.33;;;12.10;;
19619;SDS011;9957;52.282;21.110;2023-03-01T13:16:20;33.28;;;12.40;;
19619;SDS011;9957;52.282;21.110;2023-03-01T13:18:47;32.95;;;11.70;;
19619;SDS011;9957;52.282;21.110;2023-03-01T13:21:13;32.85;;;12.07;;
19619;SDS011;9957;52.282;21.110;2023-03-01T13:23:54;28.80;;;12.38;;
19619;SDS011;9957;52.282;21.110;2023-03-01T13:26:20;42.87;;;12.10;;
19619;SDS011;9957;52.282;21.110;2023-03-01T13:28:56;29.88;;;11.80;;
19619;SDS011;9957;52.282;21.110;2023-03-01T13:38:48;35.40;;;12.93;;
19619;SDS011;9957;52.282;21.110;2023-03-01T13:41:14;26.57;;;11.73;;
19619;SDS011;9957;52.282;21.110;2023-03-01T13:43:42;29.87;;;12.13;;
19619;SDS011;9957;52.282;21.110;2023-03-01T13:46:18;32.80;;;11.67;;
19619;SDS011;9957;52.282;21.110;2023-03-01T17:48:05;74.50;;;24.45;;
19619;SDS011;9957;52.282;21.110;2023-03-01T17:50:32;53.23;;;17.73;;
19619;SDS011;9957;52.282;21.110;2023-03-01T17:52:59;75.15;;;25.10;;
19619;SDS011;9957;52.282;21.110;2023-03-01T17:55:33;80.20;;;28.23;;
19619;SDS011;9957;52.282;21.110;2023-03-01T17:57:59;99.83;;;34.20;;
19619;SDS011;9957;52.282;21.110;2023-03-01T18:00:25;73.97;;;25.95;;
19619;SDS011;9957;52.282;21.110;2023-03-01T18:02:51;73.00;;;27.80;;
19619;SDS011;9957;52.282;21.110;2023-03-01T18:05:18;85.97;;;28.00;;
19619;SDS011;9957;52.282;21.110;2023-03-01T18:07:44;194.60;;;42.53;;
19619;SDS011;9957;52.282;21.110;2023-03-01T18:10:10;242.30;;;64.50;;
19619;SDS011;9957;52.282;21.110;2023-03-01T18:12:36;280.73;;;76.28;;
19619;SDS011;9957;52.282;21.110;2023-03-01T18:15:04;219.75;;;67.38;;
19619;SDS011;9957;52.282;21.110;2023-03-01T18:17:30;170.73;;;53.75;;
19619;SDS011;9957;52.282;21.110;2023-03-01T18:19:57;183.23;;;56.35;;
19619;SDS011;9957;52.282;21.110;2023-03-01T18:22:23;143.75;;;48.42;;
19619;SDS011;9957;52.282;21.110;2023-03-01T18:24:49;129.52;;;43.15;;
19619;SDS011;9957;52.282;21.110;2023-03-01T18:27:15;114.07;;;43.90;;
19619;SDS011;9957;52.282;21.110;2023-03-01T18:29:41;115.50;;;43.60;;
19619;SDS011;9957;52.282;21.110;2023-03-01T18:32:07;134.35;;;45.80;;
19619;SDS011;9957;52.282;21.110;2023-03-01T18:34:33;146.60;;;47.42;;
19619;SDS011;9957;52.282;21.110;2023-03-01T18:37:03;137.80;;;48.33;;
19619;SDS011;9957;52.282;21.110;2023-03-01T18:39:29;120.22;;;39.50;;
19619;SDS011;9957;52.282;21.110;2023-03-01T18:41:55;113.43;;;34.88;;
19619;SDS011;9957;52.282;21.110;2023-03-01T18:44:21;95.53;;;34.25;;
19619;SDS011;9957;52.282;21.110;2023-03-01T18:46:48;109.25;;;39.03;;
19619;SDS011;9957;52.282;21.110;2023-03-01T18:49:17;110.53;;;37.90;;
19619;SDS011;9957;52.282;21.110;2023-03-01T18:51:44;112.90;;;38.53;;
19619;SDS011;9957;52.282;21.110;2023-03-01T18:54:11;113.43;;;37.85;;
19619;SDS011;9957;52.282;21.110;2023-03-01T18:56:38;102.78;;;36.92;;
19619;SDS011;9957;52.282;21.110;2023-03-01T18:59:04;108.20;;;38.73;;
19619;SDS011;9957;52.282;21.110;2023-03-01T19:01:30;96.82;;;34.92;;
19619;SDS011;9957;52.282;21.110;2023-03-01T19:03:56;103.65;;;35.80;;
19619;SDS011;9957;52.282;21.110;2023-03-01T19:06:23;122.45;;;41.35;;
19619;SDS011;9957;52.282;21.110;2023-03-01T19:08:51;121.10;;;38.45;;
19619;SDS011;9957;52.282;21.110;2023-03-01T19:11:17;121.45;;;42.83;;
19619;SDS011;9957;52.282;21.110;2023-03-01T19:13:44;120.78;;;42.25;;
19619;SDS011;9957;52.282;21.110;2023-03-01T19:16:13;127.90;;;45.50;;
19619;SDS011;9957;52.282;21.110;2023-03-01T19:18:41;137.02;;;46.83;;
19619;SDS011;9957;52.282;21.110;2023-03-01T19:21:08;134.98;;;48.22;;
19619;SDS011;9957;52.282;21.110;2023-03-01T19:23:34;131.52;;;46.85;;
19619;SDS011;9957;52.282;21.110;2023-03-01T19:26:09;128.60;;;46.72;;
19619;SDS011;9957;52.282;21.110;2023-03-01T19:28:37;123.88;;;46.13;;
19619;SDS011;9957;52.282;21.110;2023-03-01T19:31:04;146.55;;;50.45;;
19619;SDS011;9957;52.282;21.110;2023-03-01T19:33:31;139.45;;;48.88;;
19619;SDS011;9957;52.282;21.110;2023-03-01T19:35:58;142.17;;;47.83;;
19619;SDS011;9957;52.282;21.110;2023-03-01T19:38:25;133.00;;;46.08;;
19619;SDS011;9957;52.282;21.110;2023-03-01T19:40:51;124.22;;;43.95;;
19619;SDS011;9957;52.282;21.110;2023-03-01T19:43:17;122.60;;;42.22;;
19619;SDS011;9957;52.282;21.110;2023-03-01T19:45:43;282.35;;;46.03;;
19619;SDS011;9957;52.282;21.110;2023-03-01T19:48:11;161.45;;;40.00;;
19619;SDS011;9957;52.282;21.110;2023-03-01T19:50:37;143.95;;;40.08;;
19619;SDS011;9957;52.282;21.110;2023-03-01T19:53:03;120.15;;;38.00;;
19619;SDS011;9957;52.282;21.110;2023-03-01T19:55:29;106.70;;;34.72;;
19619;SDS011;9957;52.282;21.110;2023-03-01T19:57:56;99.70;;;34.00;;
19619;SDS011;9957;52.282;21.110;2023-03-01T20:00:22;95.70;;;34.83;;
19619;SDS011;9957;52.282;21.110;2023-03-01T20:02:48;91.15;;;33.92;;
19619;SDS011;9957;52.282;21.110;2023-03-01T20:05:14;84.18;;;30.40;;
19619;SDS011;9957;52.282;21.110;2023-03-01T20:07:40;86.10;;;31.88;;